Aviation Digital Data Service (ADDS)

Output produced by METARs form (0244 UTC 24 July 2017)
found at http://www.aviationweather.gov/adds/metars/
 
VLLB 240200Z 18002KT 6000 SCT010 SCT050 BKN070 25/23 Q1007 NOSIG
TAF VLLB 232300Z 2400/2424 36004KT 5000 BR SCT010 SCT050 BKN080 
     TEMPO 2404/2410 9999 SCT010 BKN060
       
VLPS 240200Z 18004KT 8000 RA BKN017 BKN040 OVC100 26/25 Q1008 NOSIG
TAF VLPS 232300Z 2400/2424 22004KT 9999 SCT013 BKN040 BKN100
       
VLSK 240200Z 27002KT 4000 BR SCT016 BKN100 27/25 Q1008 NOSIG
TAF VLSK 232300Z 2400/2424 36004KT 7000 SCT013 SCT040 BKN100 
     TEMPO 2404/2410 9999 SCT020 BKN100
       
VLVT 240230Z 27006KT 9999 SCT020 SCT100 30/24 Q1006 NOSIG
TAF VLVT 232300Z 2400/2424 27004KT 7000 SCT016 BKN040 BKN083 
     TEMPO 2405/2410 9999 BKN016 BKN040
       
VLLB 240200Z 18002KT 6000 SCT010 SCT050 BKN070 25/23 Q1007 NOSIG
TAF VLLB 232300Z 2400/2424 36004KT 5000 BR SCT010 SCT050 BKN080 
     TEMPO 2404/2410 9999 SCT010 BKN060
       
VLLN 240200Z 02002KT 5000 BR SCT017 OVC090 24/23 Q1009 NOSIG RMK RERA
TAF VLLN 232300Z 2400/2424 32004KT 4000 BR SCT010 OVC090 
     TEMPO 2404/2410 9999 SCT016 BKN100
       
VLPS 240200Z 18004KT 8000 RA BKN017 BKN040 OVC100 26/25 Q1008 NOSIG
TAF VLPS 232300Z 2400/2424 22004KT 9999 SCT013 BKN040 BKN100
       
VLSK 240200Z 27002KT 4000 BR SCT016 BKN100 27/25 Q1008 NOSIG
TAF VLSK 232300Z 2400/2424 36004KT 7000 SCT013 SCT040 BKN100 
     TEMPO 2404/2410 9999 SCT020 BKN100
       
VLVT 240230Z 27006KT 9999 SCT020 SCT100 30/24 Q1006 NOSIG
TAF VLVT 232300Z 2400/2424 27004KT 7000 SCT016 BKN040 BKN083 
     TEMPO 2405/2410 9999 BKN016 BKN040